Time;durP1;ratioP1;P1;durP2;ratioP2;P2;SDS_P1;SDS_P2;PMS_P1;PMS_P2;Temp;Humidity;BMP_temperature;BMP_pressure;BME280_temperature;BME280_humidity;BME280_pressure;Samples;Min_cycle;Max_cycle;Signal;HPM_P1;HPM_P2
2022/06/04 00:01:00;;;;;;;;;;;;;;;;;;6227636;22;19923;-92
2022/06/04 00:03:28;;;;;;;;;;;;;;;;;;6211944;22;19919;-91
2022/06/04 00:05:56;;;;;;;;;;;;;;;;;;6241280;22;19919;-92
2022/06/04 00:08:23;;;;;;;;;;;;;;;;;;6239721;22;19965;-91
2022/06/04 00:16:29;;;;;;;;;;;;;;;;;;6238576;22;20354;-91
2022/06/04 00:18:55;;;;;;;;;;;;;;;;;;6215289;22;19923;-90
2022/06/04 00:21:21;;;;;;;;;;;;;;;;;;6238675;22;19919;-91
2022/06/04 00:23:47;;;;;;;;;;;;;;;;;;6240364;22;20048;-90
2022/06/04 00:26:15;;;;;;;;;;;;;;;;;;6215969;22;20056;-91
2022/06/04 00:28:42;;;;;;;;;;;;;;;;;;6241457;22;19919;-91
2022/06/04 00:31:09;;;;;;;;;;;;;;;;;;6218410;22;20651;-91
2022/06/04 00:33:43;;;;;;;;;;;;;;;;;;6215543;22;20349;-91
2022/06/04 00:36:10;;;;;;;;;;;;;;;;;;6240947;22;19919;-91
2022/06/04 00:38:37;;;;;;;;;;;;;;;;;;6238318;22;19990;-91
2022/06/04 00:41:03;;;;;;;;;;;;;;;;;;6215846;22;19997;-91
2022/06/04 00:43:34;;;;;;;;;;;;;;;;;;6265368;22;19915;-91
2022/06/04 00:46:01;;;;;;;;;;;;;;;;;;6240556;22;19915;-91
2022/06/04 00:48:30;;;;;;;;;;;;;;;;;;6239562;22;19919;-90
2022/06/04 00:50:58;;;;;;;;;;;;;;;;;;6238864;22;19919;-91
2022/06/04 00:53:42;;;;;;;;;;;;;;;;;;6237999;22;20042;-91
2022/06/04 00:56:09;;;;;;;;;;;;;;;;;;6236447;22;20340;-90
2022/06/04 00:58:42;;;;;;;;;;;;;;;;;;6235308;22;20311;-90
2022/06/04 01:01:24;;;;;;;;;;;;;;;;;;6167179;23;19924;-91
2022/06/04 01:03:50;;;;;;;;;;;;;;;;;;6169140;23;20412;-91
2022/06/04 01:06:16;;;;;;;;;;;;;;;;;;6169339;23;20044;-91
2022/06/04 01:08:43;;;;;;;;;;;;;;;;;;6166320;23;19931;-91
2022/06/04 01:11:09;;;;;;;;;;;;;;;;;;6171761;23;20348;-92
2022/06/04 01:13:36;;;;;;;;;;;;;;;;;;6166446;23;19928;-92
2022/06/04 01:16:02;;;;;;;;;;;;;;;;;;6168850;23;19920;-91
2022/06/04 01:18:33;;;;;;;;;;;;;;;;;;6165976;23;19916;-91
2022/06/04 01:21:00;;;;;;;;;;;;;;;;;;6143626;23;20249;-91
2022/06/04 01:23:27;;;;;;;;;;;;;;;;;;6167069;23;19916;-92
2022/06/04 01:25:53;;;;;;;;;;;;;;;;;;6170148;23;19947;-90
2022/06/04 01:28:20;;;;;;;;;;;;;;;;;;6146400;23;19950;-90
2022/06/04 01:31:06;;;;;;;;;;;;;;;;;;6172139;23;20371;-90
2022/06/04 01:33:33;;;;;;;;;;;;;;;;;;6235473;22;20247;-91
2022/06/04 01:36:01;;;;;;;;;;;;;;;;;;6235836;22;19926;-90
2022/06/04 01:38:28;;;;;;;;;;;;;;;;;;6234409;22;19941;-91
2022/06/04 01:41:03;;;;;;;;;;;;;;;;;;6237211;22;19996;-91
2022/06/04 01:43:30;;;;;;;;;;;;;;;;;;6207559;22;19919;-91
2022/06/04 01:45:57;;;;;;;;;;;;;;;;;;6237044;22;19926;-91
2022/06/04 01:48:25;;;;;;;;;;;;;;;;;;6208607;22;20235;-91
2022/06/04 01:50:52;;;;;;;;;;;;;;;;;;6210956;22;19918;-91
2022/06/04 01:53:18;;;;;;;;;;;;;;;;;;6235017;22;19927;-92
2022/06/04 01:55:47;;;;;;;;;;;;;;;;;;6208399;22;19981;-91
2022/06/04 01:58:14;;;;;;;;;;;;;;;;;;6236380;22;19919;-91
2022/06/04 02:00:40;;;;;;;;;;;;;;;;;;6228626;23;19924;-91
2022/06/04 02:03:07;;;;;;;;;;;;;;;;;;6230893;23;19919;-91
2022/06/04 02:05:38;;;;;;;;;;;;;;;;;;6230050;23;19920;-91
2022/06/04 02:08:03;;;;;;;;;;;;;;;;;;6231808;23;19946;-91
2022/06/04 02:10:31;;;;;;;;;;;;;;;;;;6204654;23;19924;-91
2022/06/04 02:13:05;;;;;;;;;;;;;;;;;;6232591;23;20045;-91
2022/06/04 02:15:33;;;;;;;;;;;;;;;;;;6202506;23;20332;-91
2022/06/04 02:18:01;;;;;;;;;;;;;;;;;;6205860;23;19955;-91
2022/06/04 02:20:27;;;;;;;;;;;;;;;;;;6230678;23;19994;-92
2022/06/04 02:22:54;;;;;;;;;;;;;;;;;;6204528;23;19954;-91
2022/06/04 02:25:23;;;;;;;;;;;;;;;;;;6181472;23;20018;-91
2022/06/04 02:27:59;;;;;;;;;;;;;;;;;;6234295;23;20336;-91
2022/06/04 02:30:27;;;;;;;;;;;;;;;;;;6204537;23;19938;-91
2022/06/04 02:32:53;;;;;;;;;;;;;;;;;;6231188;23;20325;-91
2022/06/04 02:35:22;;;;;;;;;;;;;;;;;;6203589;23;19926;-91
2022/06/04 02:37:56;;;;;;;;;;;;;;;;;;6229806;23;20015;-91
2022/06/04 02:40:22;;;;;;;;;;;;;;;;;;6203585;23;19915;-91
2022/06/04 02:42:48;;;;;;;;;;;;;;;;;;6228888;23;19919;-91
2022/06/04 02:45:15;;;;;;;;;;;;;;;;;;6229793;23;19995;-91
2022/06/04 02:47:45;;;;;;;;;;;;;;;;;;6227131;23;20037;-91
2022/06/04 02:50:13;;;;;;;;;;;;;;;;;;6228111;23;19947;-90
2022/06/04 02:52:44;;;;;;;;;;;;;;;;;;6226250;23;19983;-90
2022/06/04 02:55:11;;;;;;;;;;;;;;;;;;6228436;23;19965;-91
2022/06/04 02:57:39;;;;;;;;;;;;;;;;;;6176336;23;19920;-91
2022/06/04 03:00:05;;;;;;;;;;;;;;;;;;6203268;23;19923;-91
2022/06/04 03:02:31;;;;;;;;;;;;;;;;;;6224880;23;19919;-91
2022/06/04 03:05:04;;;;;;;;;;;;;;;;;;6227674;23;19930;-90
2022/06/04 03:07:30;;;;;;;;;;;;;;;;;;6226574;23;19961;-91
2022/06/04 03:09:57;;;;;;;;;;;;;;;;;;6179011;23;20903;-92
2022/06/04 03:12:25;;;;;;;;;;;;;;;;;;6227944;23;19919;-91
2022/06/04 03:14:55;;;;;;;;;;;;;;;;;;6238403;23;22339;-92
2022/06/04 03:17:21;;;;;;;;;;;;;;;;;;6177150;23;19919;-91
2022/06/04 03:19:53;;;;;;;;;;;;;;;;;;6179214;23;20023;-92
2022/06/04 03:22:19;;;;;;;;;;;;;;;;;;6228729;23;19951;-91
2022/06/04 03:24:48;;;;;;;;;;;;;;;;;;6203917;23;19990;-90
2022/06/04 03:27:15;;;;;;;;;;;;;;;;;;6180816;23;20143;-90
2022/06/04 03:29:41;;;;;;;;;;;;;;;;;;6178310;23;20014;-91
2022/06/04 03:32:07;;;;;;;;;;;;;;;;;;6181164;23;19958;-91
2022/06/04 03:34:37;;;;;;;;;;;;;;;;;;6201909;23;19950;-91
2022/06/04 03:37:04;;;;;;;;;;;;;;;;;;6228591;23;20253;-92
2022/06/04 03:39:31;;;;;;;;;;;;;;;;;;6226565;23;19920;-91
2022/06/04 03:42:01;;;;;;;;;;;;;;;;;;6178821;23;19919;-91
2022/06/04 03:44:28;;;;;;;;;;;;;;;;;;6226793;23;19919;-91
2022/06/04 03:46:54;;;;;;;;;;;;;;;;;;6182369;23;20002;-91
2022/06/04 03:49:24;;;;;;;;;;;;;;;;;;6181996;23;20084;-91
2022/06/04 03:51:50;;;;;;;;;;;;;;;;;;6208578;23;19923;-91
2022/06/04 03:54:16;;;;;;;;;;;;;;;;;;6206439;23;19923;-91
2022/06/04 03:57:37;;;;;;;;;;;;;;;;;;6204974;23;20821;-92
2022/06/04 03:59:47;;;;;;;;;;;;;;;;;;6167711;23;19971;-91
2022/06/04 04:02:14;;;;;;;;;;;;;;;;;;6168359;23;20300;-91
2022/06/04 04:04:41;;;;;;;;;;;;;;;;;;6142500;23;19920;-91
2022/06/04 04:07:08;;;;;;;;;;;;;;;;;;6145381;23;20302;-91
2022/06/04 04:09:35;;;;;;;;;;;;;;;;;;6143988;23;20394;-91
2022/06/04 04:12:03;;;;;;;;;;;;;;;;;;6146508;23;20380;-91
2022/06/04 04:14:30;;;;;;;;;;;;;;;;;;6141456;23;19932;-92
2022/06/04 04:16:57;;;;;;;;;;;;;;;;;;6145665;23;20023;-91
2022/06/04 04:19:36;;;;;;;;;;;;;;;;;;6143605;23;19995;-92
2022/06/04 04:22:03;;;;;;;;;;;;;;;;;;6145158;23;19948;-92
2022/06/04 04:24:29;;;;;;;;;;;;;;;;;;6142613;23;19993;-91
2022/06/04 04:26:56;;;;;;;;;;;;;;;;;;6146470;23;19920;-92
2022/06/04 04:29:23;;;;;;;;;;;;;;;;;;6145034;23;19924;-91
2022/06/04 04:31:49;;;;;;;;;;;;;;;;;;6201611;23;19979;-92
2022/06/04 04:34:17;;;;;;;;;;;;;;;;;;6209283;23;19923;-92
2022/06/04 04:36:45;;;;;;;;;;;;;;;;;;6228495;23;19919;-91
2022/06/04 04:39:12;;;;;;;;;;;;;;;;;;6232521;23;19919;-91
2022/06/04 04:41:43;;;;;;;;;;;;;;;;;;6234747;23;20236;-92
2022/06/04 04:44:10;;;;;;;;;;;;;;;;;;6205696;23;20243;-92
2022/06/04 04:46:37;;;;;;;;;;;;;;;;;;6229047;23;19926;-91
2022/06/04 04:49:05;;;;;;;;;;;;;;;;;;6207572;23;20024;-91
2022/06/04 04:51:34;;;;;;;;;;;;;;;;;;6229617;23;19920;-92
2022/06/04 04:54:00;;;;;;;;;;;;;;;;;;6230933;23;19924;-91
2022/06/04 04:56:27;;;;;;;;;;;;;;;;;;6203033;23;20022;-92
2022/06/04 04:59:08;;;;;;;;;;;;;;;;;;6170717;23;19948;-91
2022/06/04 05:01:36;;;;;;;;;;;;;;;;;;6185460;23;20383;-92
2022/06/04 05:04:02;;;;;;;;;;;;;;;;;;6174821;23;19920;-92
2022/06/04 05:06:29;;;;;;;;;;;;;;;;;;6196023;23;20337;-92
2022/06/04 05:08:56;;;;;;;;;;;;;;;;;;6177963;23;19990;-92
2022/06/04 05:11:23;;;;;;;;;;;;;;;;;;6200963;23;19923;-92
2022/06/04 05:13:51;;;;;;;;;;;;;;;;;;6199935;23;20235;-91
2022/06/04 05:16:35;;;;;;;;;;;;;;;;;;6196200;23;19937;-91
2022/06/04 05:19:08;;;;;;;;;;;;;;;;;;6199593;23;19959;-92
2022/06/04 05:21:36;;;;;;;;;;;;;;;;;;6171470;23;19923;-91
2022/06/04 05:24:02;;;;;;;;;;;;;;;;;;6199691;23;19966;-91
2022/06/04 05:26:29;;;;;;;;;;;;;;;;;;6198166;23;20014;-91
2022/06/04 05:28:56;;;;;;;;;;;;;;;;;;6175986;23;20288;-91
2022/06/04 05:31:23;;;;;;;;;;;;;;;;;;6211952;22;20004;-93
2022/06/04 05:33:58;;;;;;;;;;;;;;;;;;6263033;22;19923;-91
2022/06/04 05:36:25;;;;;;;;;;;;;;;;;;6259406;22;20229;-92
2022/06/04 05:38:52;;;;;;;;;;;;;;;;;;6262160;22;19970;-91
2022/06/04 05:41:19;;;;;;;;;;;;;;;;;;6211102;22;19919;-92
2022/06/04 05:43:45;;;;;;;;;;;;;;;;;;6236352;22;19990;-91
2022/06/04 05:46:14;;;;;;;;;;;;;;;;;;6211898;22;19919;-91
2022/06/04 05:48:40;;;;;;;;;;;;;;;;;;6233400;22;20360;-91
2022/06/04 05:51:08;;;;;;;;;;;;;;;;;;6236651;22;19948;-91
2022/06/04 05:53:35;;;;;;;;;;;;;;;;;;6208121;22;20275;-91
2022/06/04 05:56:03;;;;;;;;;;;;;;;;;;6211479;22;20286;-91
2022/06/04 05:58:30;;;;;;;;;;;;;;;;;;6259365;22;20077;-92
2022/06/04 06:00:56;;;;;;;;;;;;;;;;;;6236640;22;19923;-92
2022/06/04 06:03:30;;;;;;;;;;;;;;;;;;6233005;22;20001;-91
2022/06/04 06:05:58;;;;;;;;;;;;;;;;;;6212348;22;19919;-91
2022/06/04 06:08:29;;;;;;;;;;;;;;;;;;6234375;22;20049;-91
2022/06/04 06:10:58;;;;;;;;;;;;;;;;;;6211082;22;19962;-91
2022/06/04 06:13:25;;;;;;;;;;;;;;;;;;6234302;22;19928;-92
2022/06/04 06:15:53;;;;;;;;;;;;;;;;;;6209921;22;19915;-91
2022/06/04 06:18:19;;;;;;;;;;;;;;;;;;6235952;22;19972;-92
2022/06/04 06:20:46;;;;;;;;;;;;;;;;;;6234407;22;19930;-92
2022/06/04 06:23:13;;;;;;;;;;;;;;;;;;6235119;22;20356;-91
2022/06/04 06:25:39;;;;;;;;;;;;;;;;;;6209414;22;20328;-91
2022/06/04 06:28:08;;;;;;;;;;;;;;;;;;6238605;22;19926;-92
2022/06/04 06:30:35;;;;;;;;;;;;;;;;;;6236019;22;19938;-91
2022/06/04 06:33:03;;;;;;;;;;;;;;;;;;6236037;22;19966;-92
2022/06/04 06:35:31;;;;;;;;;;;;;;;;;;6208083;22;20339;-90
2022/06/04 06:37:58;;;;;;;;;;;;;;;;;;6235595;22;19923;-90
2022/06/04 06:40:25;;;;;;;;;;;;;;;;;;6233787;22;19927;-90
2022/06/04 06:42:53;;;;;;;;;;;;;;;;;;6235904;22;19919;-90
2022/06/04 06:45:20;;;;;;;;;;;;;;;;;;6235219;22;19926;-90
2022/06/04 06:47:49;;;;;;;;;;;;;;;;;;6185761;22;19919;-90
2022/06/04 06:50:17;;;;;;;;;;;;;;;;;;6211834;22;19994;-90
2022/06/04 06:52:44;;;;;;;;;;;;;;;;;;6253451;22;19995;-90
2022/06/04 06:55:10;;;;;;;;;;;;;;;;;;6235226;22;19919;-90
2022/06/04 06:57:37;;;;;;;;;;;;;;;;;;6259274;22;19954;-90
2022/06/04 07:00:05;;;;;;;;;;;;;;;;;;6262668;22;19924;-90
2022/06/04 07:02:32;;;;;;;;;;;;;;;;;;6207898;22;19915;-90
2022/06/04 07:05:00;;;;;;;;;;;;;;;;;;6233847;22;19927;-90
2022/06/04 07:07:27;;;;;;;;;;;;;;;;;;6234117;22;20020;-91
2022/06/04 07:09:54;;;;;;;;;;;;;;;;;;6236460;22;19982;-90
2022/06/04 07:12:24;;;;;;;;;;;;;;;;;;6232782;22;19919;-91
2022/06/04 07:14:50;;;;;;;;;;;;;;;;;;6236226;22;19919;-90
2022/06/04 07:17:16;;;;;;;;;;;;;;;;;;6210365;22;19976;-90
2022/06/04 07:19:44;;;;;;;;;;;;;;;;;;6233728;22;19926;-90
2022/06/04 07:22:11;;;;;;;;;;;;;;;;;;6212372;22;19946;-90
2022/06/04 07:24:38;;;;;;;;;;;;;;;;;;6232038;22;19919;-90
2022/06/04 07:27:05;;;;;;;;;;;;;;;;;;6212225;22;19927;-90
2022/06/04 07:29:33;;;;;;;;;;;;;;;;;;6208341;22;19926;-90
2022/06/04 07:31:58;;;;;;;;;;;;;;;;;;6236722;22;20831;-90
2022/06/04 07:34:26;;;;;;;;;;;;;;;;;;6207748;22;19977;-91
2022/06/04 07:36:56;;;;;;;;;;;;;;;;;;6262420;22;19942;-90
2022/06/04 07:39:23;;;;;;;;;;;;;;;;;;6205660;22;19915;-91
2022/06/04 07:41:52;;;;;;;;;;;;;;;;;;6262604;22;19922;-91
2022/06/04 07:44:19;;;;;;;;;;;;;;;;;;6233884;22;20336;-90
2022/06/04 07:46:45;;;;;;;;;;;;;;;;;;6232637;22;19950;-89
2022/06/04 07:49:18;;;;;;;;;;;;;;;;;;6236682;22;19926;-90
2022/06/04 07:51:49;;;;;;;;;;;;;;;;;;6234066;22;19931;-90
2022/06/04 07:54:16;;;;;;;;;;;;;;;;;;6209796;22;19954;-90
2022/06/04 07:56:44;;;;;;;;;;;;;;;;;;6231137;22;19919;-89
2022/06/04 07:59:10;;;;;;;;;;;;;;;;;;6234205;22;19915;-90
2022/06/04 08:01:37;;;;;;;;;;;;;;;;;;6226292;23;20258;-90
2022/06/04 08:04:03;;;;;;;;;;;;;;;;;;6179985;23;19924;-90
2022/06/04 08:06:31;;;;;;;;;;;;;;;;;;6227358;23;19920;-90
2022/06/04 08:08:59;;;;;;;;;;;;;;;;;;6230886;23;19927;-90
2022/06/04 08:11:33;;;;;;;;;;;;;;;;;;6226894;23;20370;-90
2022/06/04 08:14:19;;;;;;;;;;;;;;;;;;6202658;23;20002;-90
2022/06/04 08:16:46;;;;;;;;;;;;;;;;;;6200499;23;19962;-89
2022/06/04 08:19:13;;;;;;;;;;;;;;;;;;6202951;23;19919;-90
2022/06/04 08:21:39;;;;;;;;;;;;;;;;;;6201883;23;20291;-90
2022/06/04 08:24:15;;;;;;;;;;;;;;;;;;6228843;23;20272;-91
2022/06/04 08:26:58;;;;;;;;;;;;;;;;;;6208462;23;20017;-90
2022/06/04 08:29:26;;;;;;;;;;;;;;;;;;6200273;23;19956;-90
2022/06/04 08:31:53;;;;;;;;;;;;;;;;;;6229204;23;19958;-90
2022/06/04 08:34:24;;;;;;;;;;;;;;;;;;6231075;23;19923;-89
2022/06/04 08:36:51;;;;;;;;;;;;;;;;;;6182023;23;20074;-90
2022/06/04 08:39:18;;;;;;;;;;;;;;;;;;6181729;23;19916;-90
2022/06/04 08:41:44;;;;;;;;;;;;;;;;;;6179103;23;19924;-90
2022/06/04 08:44:13;;;;;;;;;;;;;;;;;;6139753;23;19940;-90
2022/06/04 08:46:49;;;;;;;;;;;;;;;;;;6116347;23;19917;-90
2022/06/04 08:49:17;;;;;;;;;;;;;;;;;;6117312;23;19920;-90
2022/06/04 08:51:45;;;;;;;;;;;;;;;;;;6140157;23;19955;-90
2022/06/04 09:00:00;;;;;;;;;;;;;;;;;;6115503;23;19924;-91
2022/06/04 09:02:27;;;;;;;;;;;;;;;;;;6090203;23;19931;-90
2022/06/04 09:04:54;;;;;;;;;;;;;;;;;;6113435;23;20481;-90
2022/06/04 09:07:20;;;;;;;;;;;;;;;;;;6117198;23;19921;-91
2022/06/04 09:09:48;;;;;;;;;;;;;;;;;;6117773;23;20566;-91
2022/06/04 09:12:18;;;;;;;;;;;;;;;;;;6118099;23;19992;-91
2022/06/04 09:14:49;;;;;;;;;;;;;;;;;;6162827;23;19923;-90
2022/06/04 09:17:15;;;;;;;;;;;;;;;;;;6204701;23;19920;-82
2022/06/04 09:19:48;;;;;;;;;;;;;;;;;;6205331;23;20045;-82
2022/06/04 09:22:24;;;;;;;;;;;;;;;;;;6227977;23;20037;-82
2022/06/04 09:24:52;;;;;;;;;;;;;;;;;;6232167;23;20340;-82
2022/06/04 09:27:19;;;;;;;;;;;;;;;;;;6233663;23;20226;-82
2022/06/04 09:29:45;;;;;;;;;;;;;;;;;;6203499;23;20002;-82
2022/06/04 09:32:12;;;;;;;;;;;;;;;;;;6209710;23;19990;-82
2022/06/04 09:34:43;;;;;;;;;;;;;;;;;;6206959;23;19923;-82
2022/06/04 09:37:09;;;;;;;;;;;;;;;;;;6184070;23;19916;-82
2022/06/04 09:39:42;;;;;;;;;;;;;;;;;;6205253;23;19997;-82
2022/06/04 09:42:09;;;;;;;;;;;;;;;;;;6208830;23;20247;-82
2022/06/04 09:44:36;;;;;;;;;;;;;;;;;;6205015;23;20339;-82
2022/06/04 09:47:03;;;;;;;;;;;;;;;;;;6206556;23;19926;-82
2022/06/04 09:49:30;;;;;;;;;;;;;;;;;;6201918;23;19926;-82
2022/06/04 09:52:11;;;;;;;;;;;;;;;;;;6168261;23;19956;-82
2022/06/04 09:54:40;;;;;;;;;;;;;;;;;;6164809;23;20010;-82
2022/06/04 09:57:09;;;;;;;;;;;;;;;;;;6168909;23;20528;-82
2022/06/04 09:59:36;;;;;;;;;;;;;;;;;;6168516;23;20463;-82
2022/06/04 10:02:04;;;;;;;;;;;;;;;;;;6193663;23;19974;-83
2022/06/04 10:04:34;;;;;;;;;;;;;;;;;;6197273;23;19920;-82
2022/06/04 10:06:59;;;;;;;;;;;;;;;;;;6200732;23;19939;-82
2022/06/04 10:12:17;;;;;;;;;;;;;;;;;;6199676;23;19966;-83
2022/06/04 10:14:45;;;;;;;;;;;;;;;;;;6198236;23;19931;-82
2022/06/04 10:17:15;;;;;;;;;;;;;;;;;;6200052;23;20253;-83
2022/06/04 10:19:42;;;;;;;;;;;;;;;;;;6198403;23;20450;-83
2022/06/04 10:22:09;;;;;;;;;;;;;;;;;;6204619;22;19938;-83
2022/06/04 10:24:38;;;;;;;;;;;;;;;;;;6235500;22;20294;-82
2022/06/04 10:27:07;;;;;;;;;;;;;;;;;;6264348;22;19968;-82
2022/06/04 10:29:35;;;;;;;;;;;;;;;;;;6208818;22;20244;-82
2022/06/04 10:32:01;;;;;;;;;;;;;;;;;;6209184;22;19981;-82
2022/06/04 10:34:31;;;;;;;;;;;;;;;;;;6258436;22;19923;-82
2022/06/04 10:37:01;;;;;;;;;;;;;;;;;;6264429;22;19915;-83
2022/06/04 10:39:28;;;;;;;;;;;;;;;;;;6233386;22;20028;-83
2022/06/04 10:41:54;;;;;;;;;;;;;;;;;;6210743;22;19923;-82
2022/06/04 10:44:28;;;;;;;;;;;;;;;;;;6233430;22;20089;-83
2022/06/04 10:46:53;;;;;;;;;;;;;;;;;;6234350;22;19935;-83
2022/06/04 10:49:40;;;;;;;;;;;;;;;;;;6236480;22;19922;-82
2022/06/04 10:52:07;;;;;;;;;;;;;;;;;;6261980;22;19920;-82
2022/06/04 10:54:34;;;;;;;;;;;;;;;;;;6234024;22;19984;-82
2022/06/04 10:57:16;;;;;;;;;;;;;;;;;;6263124;22;19922;-83
2022/06/04 11:00:01;;;;;;;;;;;;;;;;;;6240072;22;19957;-83
2022/06/04 11:02:38;;;;;;;;;;;;;;;;;;6236847;22;19915;-83
2022/06/04 11:05:05;;;;;;;;;;;;;;;;;;6210790;22;20228;-84
2022/06/04 11:07:32;;;;;;;;;;;;;;;;;;6209968;22;20383;-84
2022/06/04 11:09:59;;;;;;;;;;;;;;;;;;6234550;22;19919;-83
2022/06/04 11:12:27;;;;;;;;;;;;;;;;;;6233064;22;19969;-83
2022/06/04 11:14:54;;;;;;;;;;;;;;;;;;6235592;22;19976;-83
2022/06/04 11:17:20;;;;;;;;;;;;;;;;;;6236192;22;19919;-83
2022/06/04 11:19:46;;;;;;;;;;;;;;;;;;6258333;22;20256;-83
2022/06/04 11:22:14;;;;;;;;;;;;;;;;;;6235816;22;19919;-82
2022/06/04 11:24:41;;;;;;;;;;;;;;;;;;6233232;22;20335;-83
2022/06/04 11:27:08;;;;;;;;;;;;;;;;;;6210192;22;19915;-81
2022/06/04 11:29:36;;;;;;;;;;;;;;;;;;6261744;22;19923;-83
2022/06/04 11:32:03;;;;;;;;;;;;;;;;;;6237342;22;19919;-82
2022/06/04 11:34:30;;;;;;;;;;;;;;;;;;6235551;22;20002;-82
2022/06/04 11:36:56;;;;;;;;;;;;;;;;;;6211097;22;19994;-82
2022/06/04 11:39:24;;;;;;;;;;;;;;;;;;6234802;22;19997;-82
2022/06/04 11:41:50;;;;;;;;;;;;;;;;;;6236393;22;19919;-83
2022/06/04 11:44:16;;;;;;;;;;;;;;;;;;6235368;22;19994;-83
2022/06/04 11:46:43;;;;;;;;;;;;;;;;;;6233554;22;20212;-83
2022/06/04 11:49:09;;;;;;;;;;;;;;;;;;6236203;22;20097;-83
2022/06/04 11:51:43;;;;;;;;;;;;;;;;;;6235797;22;19925;-83
2022/06/04 11:54:09;;;;;;;;;;;;;;;;;;6235629;22;19919;-82
2022/06/04 11:56:42;;;;;;;;;;;;;;;;;;6233071;22;19965;-82
2022/06/04 11:59:09;;;;;;;;;;;;;;;;;;6235950;22;19916;-82
2022/06/04 12:01:38;;;;;;;;;;;;;;;;;;6234512;22;19958;-82
2022/06/04 12:04:05;;;;;;;;;;;;;;;;;;6209040;22;19946;-83
2022/06/04 12:06:34;;;;;;;;;;;;;;;;;;6262859;22;19923;-83
2022/06/04 12:09:01;;;;;;;;;;;;;;;;;;6236885;22;20507;-83
2022/06/04 12:11:28;;;;;;;;;;;;;;;;;;6234139;22;19943;-83
2022/06/04 12:13:56;;;;;;;;;;;;;;;;;;6213331;22;19927;-83
2022/06/04 12:16:23;;;;;;;;;;;;;;;;;;6237947;22;19982;-83
2022/06/04 12:18:50;;;;;;;;;;;;;;;;;;6213219;22;19919;-83
2022/06/04 12:24:16;;;;;;;;;;;;;;;;;;6238017;22;19934;-83
2022/06/04 12:26:47;;;;;;;;;;;;;;;;;;6263198;22;20049;-91
2022/06/04 12:29:19;;;;;;;;;;;;;;;;;;6211826;22;19942;-90
2022/06/04 12:31:48;;;;;;;;;;;;;;;;;;6236832;22;19923;-92
2022/06/04 12:34:15;;;;;;;;;;;;;;;;;;6238925;22;19930;-91
2022/06/04 12:36:47;;;;;;;;;;;;;;;;;;6239286;22;19919;-91
2022/06/04 12:39:13;;;;;;;;;;;;;;;;;;6238321;22;19958;-91
2022/06/04 12:41:56;;;;;;;;;;;;;;;;;;6236138;22;19946;-91
2022/06/04 12:44:23;;;;;;;;;;;;;;;;;;6211485;22;19934;-91
2022/06/04 12:46:49;;;;;;;;;;;;;;;;;;6238482;22;20324;-91
2022/06/04 12:49:16;;;;;;;;;;;;;;;;;;6239785;22;19919;-92
2022/06/04 12:51:56;;;;;;;;;;;;;;;;;;6267108;22;20245;-91
2022/06/04 12:54:27;;;;;;;;;;;;;;;;;;6263984;22;19992;-91
2022/06/04 12:56:53;;;;;;;;;;;;;;;;;;6237175;22;20273;-92
2022/06/04 12:59:20;;;;;;;;;;;;;;;;;;6235220;22;19919;-91
2022/06/04 13:01:48;;;;;;;;;;;;;;;;;;6203614;23;19930;-91
2022/06/04 13:04:16;;;;;;;;;;;;;;;;;;6204765;23;20411;-91
2022/06/04 13:06:43;;;;;;;;;;;;;;;;;;6177694;23;19919;-91
2022/06/04 13:09:18;;;;;;;;;;;;;;;;;;6205541;23;19919;-91
2022/06/04 13:11:44;;;;;;;;;;;;;;;;;;6204214;23;19970;-92
2022/06/04 13:14:14;;;;;;;;;;;;;;;;;;6206359;23;20006;-92
2022/06/04 13:16:41;;;;;;;;;;;;;;;;;;6202996;23;19926;-91
2022/06/04 13:19:07;;;;;;;;;;;;;;;;;;6233218;23;19919;-92
2022/06/04 13:21:33;;;;;;;;;;;;;;;;;;6202358;23;20419;-91
2022/06/04 13:24:00;;;;;;;;;;;;;;;;;;6203640;23;19927;-90
2022/06/04 13:26:34;;;;;;;;;;;;;;;;;;6229804;23;20295;-92
2022/06/04 13:29:00;;;;;;;;;;;;;;;;;;6207114;23;19926;-93
2022/06/04 13:31:28;;;;;;;;;;;;;;;;;;6203528;23;19990;-92
2022/06/04 13:33:54;;;;;;;;;;;;;;;;;;6231081;23;19942;-92
2022/06/04 13:36:20;;;;;;;;;;;;;;;;;;6206163;23;19934;-94
2022/06/04 13:38:51;;;;;;;;;;;;;;;;;;6174250;23;20010;-93
2022/06/04 13:41:18;;;;;;;;;;;;;;;;;;6198863;23;20303;-93
2022/06/04 13:43:49;;;;;;;;;;;;;;;;;;6197386;23;19919;-93
2022/06/04 13:46:16;;;;;;;;;;;;;;;;;;6196960;23;19924;-93
2022/06/04 13:48:42;;;;;;;;;;;;;;;;;;6144543;23;19960;-94
2022/06/04 13:51:08;;;;;;;;;;;;;;;;;;6197016;23;19963;-94
2022/06/04 13:53:41;;;;;;;;;;;;;;;;;;6194961;23;19978;-92
2022/06/04 13:56:09;;;;;;;;;;;;;;;;;;6173254;23;19916;-92
2022/06/04 13:58:35;;;;;;;;;;;;;;;;;;6195077;23;19928;-92
2022/06/04 14:01:09;;;;;;;;;;;;;;;;;;6196686;23;20466;-91
2022/06/04 14:03:37;;;;;;;;;;;;;;;;;;6193397;23;19943;-91
2022/06/04 14:06:03;;;;;;;;;;;;;;;;;;6195241;23;20050;-91
2022/06/04 14:08:30;;;;;;;;;;;;;;;;;;6170419;23;20475;-91
2022/06/04 14:10:57;;;;;;;;;;;;;;;;;;6201533;23;19927;-91
2022/06/04 14:13:23;;;;;;;;;;;;;;;;;;6223831;23;19942;-92
2022/06/04 14:15:50;;;;;;;;;;;;;;;;;;6199824;23;20622;-83
2022/06/04 14:18:20;;;;;;;;;;;;;;;;;;6226752;23;19935;-83
2022/06/04 14:20:47;;;;;;;;;;;;;;;;;;6226687;23;19920;-83
2022/06/04 14:23:13;;;;;;;;;;;;;;;;;;6228381;23;19966;-83
2022/06/04 14:25:41;;;;;;;;;;;;;;;;;;6226698;23;19916;-83
2022/06/04 14:28:09;;;;;;;;;;;;;;;;;;6202488;23;19986;-83
2022/06/04 14:30:37;;;;;;;;;;;;;;;;;;6225284;23;20395;-83
2022/06/04 14:33:03;;;;;;;;;;;;;;;;;;6204501;23;20042;-83
2022/06/04 14:35:30;;;;;;;;;;;;;;;;;;6227938;23;19973;-83
2022/06/04 14:37:58;;;;;;;;;;;;;;;;;;6202220;23;19994;-83
2022/06/04 14:40:24;;;;;;;;;;;;;;;;;;6229701;22;19919;-83
2022/06/04 14:42:51;;;;;;;;;;;;;;;;;;6232192;23;19923;-83
2022/06/04 14:45:19;;;;;;;;;;;;;;;;;;6229438;23;19920;-83
2022/06/04 14:47:46;;;;;;;;;;;;;;;;;;6219575;23;19994;-82
2022/06/04 14:50:12;;;;;;;;;;;;;;;;;;6229884;23;19977;-83
2022/06/04 14:52:39;;;;;;;;;;;;;;;;;;6224259;23;19919;-82
2022/06/04 14:55:25;;;;;;;;;;;;;;;;;;6109465;23;19932;-83
2022/06/04 14:57:58;;;;;;;;;;;;;;;;;;6112858;23;19923;-83
2022/06/04 15:00:25;;;;;;;;;;;;;;;;;;6135512;23;19991;-83
2022/06/04 15:02:51;;;;;;;;;;;;;;;;;;6142360;23;20330;-83
2022/06/04 15:05:24;;;;;;;;;;;;;;;;;;6117553;23;20050;-83
2022/06/04 15:07:52;;;;;;;;;;;;;;;;;;6164933;23;19920;-82
2022/06/04 15:10:19;;;;;;;;;;;;;;;;;;6116393;23;19939;-83
2022/06/04 15:12:48;;;;;;;;;;;;;;;;;;6138586;23;19947;-83
2022/06/04 15:15:18;;;;;;;;;;;;;;;;;;6141873;23;19950;-83
2022/06/04 15:17:45;;;;;;;;;;;;;;;;;;6137754;23;19951;-82
2022/06/04 15:20:13;;;;;;;;;;;;;;;;;;6167124;23;19920;-83
2022/06/04 15:22:39;;;;;;;;;;;;;;;;;;6164850;23;19927;-83
2022/06/04 15:25:19;;;;;;;;;;;;;;;;;;6168738;23;19952;-82
2022/06/04 15:27:45;;;;;;;;;;;;;;;;;;6163033;23;19952;-83
2022/06/04 15:36:13;;;;;;;;;;;;;;;;;;6141046;23;20432;-83
2022/06/04 15:38:39;;;;;;;;;;;;;;;;;;6150052;23;20047;-82
2022/06/04 15:41:13;;;;;;;;;;;;;;;;;;6200495;23;19926;-83
2022/06/04 15:44:00;;;;;;;;;;;;;;;;;;6179510;23;19916;-82
2022/06/04 15:46:27;;;;;;;;;;;;;;;;;;6176645;23;20019;-82
2022/06/04 15:48:54;;;;;;;;;;;;;;;;;;6177983;23;20429;-82
2022/06/04 15:56:55;;;;;;;;;;;;;;;;;;6201674;23;20552;-82
2022/06/04 15:59:24;;;;;;;;;;;;;;;;;;6196129;23;19923;-83
2022/06/04 16:01:53;;;;;;;;;;;;;;;;;;6195453;23;19924;-82
2022/06/04 16:04:20;;;;;;;;;;;;;;;;;;6208527;23;20302;-82
2022/06/04 16:06:49;;;;;;;;;;;;;;;;;;6181851;23;19919;-84
2022/06/04 16:09:30;;;;;;;;;;;;;;;;;;6145490;23;19920;-82
2022/06/04 16:11:57;;;;;;;;;;;;;;;;;;6169989;23;20252;-82
2022/06/04 16:14:25;;;;;;;;;;;;;;;;;;6169849;23;19924;-82
2022/06/04 16:16:58;;;;;;;;;;;;;;;;;;6124642;23;20304;-83
2022/06/04 16:19:25;;;;;;;;;;;;;;;;;;6171350;23;19920;-83
2022/06/04 16:21:51;;;;;;;;;;;;;;;;;;6121544;23;19920;-83
2022/06/04 16:24:24;;;;;;;;;;;;;;;;;;6168069;23;19935;-83
2022/06/04 16:26:52;;;;;;;;;;;;;;;;;;6173406;23;19917;-82
2022/06/04 16:29:18;;;;;;;;;;;;;;;;;;6176537;23;19923;-82
2022/06/04 16:32:00;;;;;;;;;;;;;;;;;;6201919;23;20414;-85
2022/06/04 16:34:27;;;;;;;;;;;;;;;;;;6199774;23;19923;-83
2022/06/04 16:36:55;;;;;;;;;;;;;;;;;;6177524;23;19923;-83
2022/06/04 16:39:23;;;;;;;;;;;;;;;;;;6198639;23;19919;-83
2022/06/04 16:41:56;;;;;;;;;;;;;;;;;;6202495;23;20763;-82
2022/06/04 16:44:22;;;;;;;;;;;;;;;;;;6175418;23;19916;-82
2022/06/04 16:46:48;;;;;;;;;;;;;;;;;;6195806;23;19916;-82
2022/06/04 16:52:03;;;;;;;;;;;;;;;;;;6229608;23;19926;-82
2022/06/04 16:54:30;;;;;;;;;;;;;;;;;;6202803;23;20022;-83
2022/06/04 16:56:58;;;;;;;;;;;;;;;;;;6178657;23;19990;-83
2022/06/04 16:59:24;;;;;;;;;;;;;;;;;;6226674;23;20011;-83
2022/06/04 17:01:51;;;;;;;;;;;;;;;;;;6229252;23;19930;-83
2022/06/04 17:04:32;;;;;;;;;;;;;;;;;;6192993;23;19920;-83
2022/06/04 17:06:59;;;;;;;;;;;;;;;;;;6197468;23;19976;-83
2022/06/04 17:09:25;;;;;;;;;;;;;;;;;;6196846;23;20351;-83
2022/06/04 17:11:53;;;;;;;;;;;;;;;;;;6170282;23;19923;-83
2022/06/04 17:14:20;;;;;;;;;;;;;;;;;;6196164;23;19930;-83
2022/06/04 17:16:59;;;;;;;;;;;;;;;;;;6194039;23;19927;-83
2022/06/04 17:19:25;;;;;;;;;;;;;;;;;;6195071;23;19926;-83
2022/06/04 17:21:52;;;;;;;;;;;;;;;;;;6147351;23;20336;-83
2022/06/04 17:24:21;;;;;;;;;;;;;;;;;;6197381;23;19974;-83
2022/06/04 17:26:49;;;;;;;;;;;;;;;;;;6169744;23;19916;-87